createdAt,value
2018-09-13T00:01:29.598Z,19.40
2018-09-13T00:03:57.847Z,19.40
2018-09-13T00:06:25.997Z,19.40
2018-09-13T00:08:54.088Z,19.40
2018-09-13T00:11:22.196Z,19.40
2018-09-13T00:13:50.316Z,19.40
2018-09-13T00:16:18.437Z,19.30
2018-09-13T00:18:46.577Z,19.30
2018-09-13T00:21:14.787Z,19.30
2018-09-13T00:23:42.879Z,19.30
2018-09-13T00:26:10.997Z,19.30
2018-09-13T00:28:39.152Z,19.20
2018-09-13T00:31:07.377Z,19.20
2018-09-13T00:33:35.445Z,19.20
2018-09-13T00:36:03.565Z,19.20
2018-09-13T00:38:31.643Z,19.10
2018-09-13T00:40:59.867Z,19.20
2018-09-13T00:43:27.992Z,19.20
2018-09-13T00:45:56.115Z,19.20
2018-09-13T00:48:24.217Z,19.10
2018-09-13T00:50:52.317Z,19.10
2018-09-13T00:53:20.417Z,19.10
2018-09-13T00:55:48.507Z,19.20
2018-09-13T00:58:16.628Z,19.20
2018-09-13T01:00:44.792Z,19.10
2018-09-13T01:03:12.902Z,19.10
2018-09-13T01:05:41.000Z,19.10
2018-09-13T01:08:09.144Z,19.10
2018-09-13T01:10:37.293Z,19.10
2018-09-13T01:13:05.749Z,19.00
2018-09-13T01:15:33.851Z,19.00
2018-09-13T01:18:01.998Z,19.00
2018-09-13T01:20:30.330Z,19.00
2018-09-13T01:22:58.444Z,19.00
2018-09-13T01:25:26.537Z,19.00
2018-09-13T01:27:54.700Z,19.00
2018-09-13T01:30:22.823Z,19.00
2018-09-13T01:32:50.953Z,18.90
2018-09-13T01:35:19.160Z,18.90
2018-09-13T01:37:47.320Z,18.80
2018-09-13T01:40:15.519Z,18.90
2018-09-13T01:42:43.695Z,18.80
2018-09-13T01:45:11.827Z,18.80
2018-09-13T01:47:40.047Z,18.80
2018-09-13T01:50:08.322Z,18.80
2018-09-13T01:52:36.455Z,18.80
2018-09-13T01:55:04.616Z,18.80
2018-09-13T01:57:32.776Z,18.80
2018-09-13T02:00:00.908Z,18.80
2018-09-13T02:02:29.091Z,18.70
2018-09-13T02:04:57.223Z,18.70
2018-09-13T02:07:25.412Z,18.70
2018-09-13T02:09:53.535Z,18.70
2018-09-13T02:12:21.664Z,18.70
2018-09-13T02:14:49.803Z,18.70
2018-09-13T02:17:17.967Z,18.60
2018-09-13T02:19:46.078Z,18.60
2018-09-13T02:22:14.225Z,18.60
2018-09-13T02:24:42.339Z,18.60
2018-09-13T02:27:10.474Z,18.60
2018-09-13T02:29:38.588Z,18.60
2018-09-13T02:32:06.715Z,18.50
2018-09-13T02:34:34.836Z,18.50
2018-09-13T02:37:02.954Z,18.50
2018-09-13T02:39:31.060Z,18.50
2018-09-13T02:41:59.211Z,18.50
2018-09-13T02:44:27.375Z,18.50
2018-09-13T02:46:55.507Z,18.50
2018-09-13T02:49:23.635Z,18.40
2018-09-13T02:51:51.744Z,18.40
2018-09-13T02:54:19.847Z,18.40
2018-09-13T02:56:47.944Z,18.40
2018-09-13T02:59:16.049Z,18.40
2018-09-13T03:01:44.199Z,18.40
2018-09-13T03:04:12.379Z,18.30
2018-09-13T03:06:40.533Z,18.30
2018-09-13T03:09:10.877Z,18.30
2018-09-13T03:11:39.072Z,18.30
2018-09-13T03:14:07.268Z,18.20
2018-09-13T03:16:35.375Z,18.20
2018-09-13T03:19:03.492Z,18.20
2018-09-13T03:21:31.615Z,18.10
2018-09-13T03:23:59.755Z,18.20
2018-09-13T03:26:27.862Z,18.20
2018-09-13T03:28:56.103Z,18.10
2018-09-13T03:31:24.227Z,18.10
2018-09-13T03:33:52.351Z,18.10
2018-09-13T03:36:20.488Z,18.10
2018-09-13T03:38:48.596Z,18.10
2018-09-13T03:41:16.718Z,18.10
2018-09-13T03:43:44.819Z,18.00
2018-09-13T03:46:12.970Z,18.00
2018-09-13T03:48:41.144Z,18.00
2018-09-13T03:51:09.262Z,18.00
2018-09-13T03:53:37.391Z,18.00
2018-09-13T03:56:05.607Z,17.90
2018-09-13T03:58:33.740Z,17.90
2018-09-13T04:01:01.860Z,17.90
2018-09-13T04:03:30.017Z,17.90
2018-09-13T04:05:58.083Z,17.90
2018-09-13T04:08:26.224Z,17.90
2018-09-13T04:10:54.328Z,17.80
2018-09-13T04:13:22.470Z,17.80
2018-09-13T04:15:50.638Z,17.80
2018-09-13T04:18:18.763Z,17.70
2018-09-13T04:20:46.897Z,17.70
2018-09-13T04:23:15.044Z,17.70
2018-09-13T04:25:43.156Z,17.70
2018-09-13T04:28:11.269Z,17.70
2018-09-13T04:30:39.390Z,17.70
2018-09-13T04:33:07.576Z,17.60
2018-09-13T04:35:35.808Z,17.60
2018-09-13T04:38:03.887Z,17.60
2018-09-13T04:40:32.016Z,17.60
2018-09-13T04:43:00.163Z,17.60
2018-09-13T04:45:28.284Z,17.60
2018-09-13T04:47:56.419Z,17.60
2018-09-13T04:50:24.569Z,17.60
2018-09-13T04:52:52.700Z,17.50
2018-09-13T04:55:20.827Z,17.50
2018-09-13T04:57:48.995Z,17.50
2018-09-13T05:00:17.259Z,17.50
2018-09-13T05:02:45.283Z,17.50
2018-09-13T05:05:13.460Z,17.50
2018-09-13T05:07:41.607Z,17.50
2018-09-13T05:10:09.456Z,17.50
2018-09-13T05:12:37.543Z,17.50
2018-09-13T05:15:06.044Z,17.50
2018-09-13T05:17:34.206Z,17.40
2018-09-13T05:20:02.500Z,17.40
2018-09-13T05:22:30.671Z,17.40
2018-09-13T05:24:58.839Z,17.40
2018-09-13T05:27:26.965Z,17.40
2018-09-13T05:29:55.089Z,17.50
2018-09-13T05:32:23.239Z,17.40
2018-09-13T05:34:51.354Z,17.40
2018-09-13T05:37:19.480Z,17.40
2018-09-13T05:39:47.598Z,17.50
2018-09-13T05:42:15.727Z,17.50
2018-09-13T05:44:43.946Z,17.50
2018-09-13T05:47:11.972Z,17.50
2018-09-13T05:49:40.118Z,17.50
2018-09-13T05:52:08.235Z,17.60
2018-09-13T05:54:36.331Z,17.60
2018-09-13T05:57:04.472Z,17.60
2018-09-13T05:59:32.579Z,17.60
2018-09-13T06:02:00.714Z,17.70
2018-09-13T06:04:28.838Z,17.60
2018-09-13T06:06:56.956Z,17.60
2018-09-13T06:09:25.062Z,17.60
2018-09-13T06:11:53.208Z,17.60
2018-09-13T06:14:21.325Z,17.70
2018-09-13T06:16:49.452Z,17.70
2018-09-13T06:19:17.563Z,17.80
2018-09-13T06:21:45.705Z,17.70
2018-09-13T06:24:13.802Z,17.80
2018-09-13T06:26:41.942Z,17.80
2018-09-13T06:29:10.123Z,17.90
2018-09-13T06:31:38.397Z,17.90
2018-09-13T06:34:06.697Z,17.90
2018-09-13T06:36:34.825Z,17.90
2018-09-13T06:39:02.963Z,17.90
2018-09-13T06:41:31.087Z,17.90
2018-09-13T06:43:59.204Z,18.00
2018-09-13T06:46:27.363Z,18.00
2018-09-13T06:48:55.503Z,18.00
2018-09-13T06:51:25.951Z,18.00
2018-09-13T06:53:54.329Z,18.00
2018-09-13T06:56:22.656Z,18.00
2018-09-13T06:58:51.320Z,18.00
2018-09-13T07:01:19.969Z,18.10
2018-09-13T07:03:48.444Z,18.20
2018-09-13T07:06:16.667Z,18.20
2018-09-13T07:08:44.771Z,18.20
2018-09-13T07:11:15.862Z,18.20
2018-09-13T07:13:44.075Z,18.20
2018-09-13T07:16:12.215Z,18.20
2018-09-13T07:18:40.523Z,18.30
2018-09-13T07:21:08.971Z,18.30
2018-09-13T07:23:37.601Z,18.40
2018-09-13T07:26:06.127Z,18.40
2018-09-13T07:28:34.400Z,18.40
2018-09-13T07:31:02.916Z,18.40
2018-09-13T07:33:30.994Z,18.50
2018-09-13T07:35:59.139Z,18.50
2018-09-13T07:38:28.008Z,18.50
2018-09-13T07:40:56.567Z,18.50
2018-09-13T07:43:24.698Z,18.50
2018-09-13T07:45:52.872Z,18.50
2018-09-13T07:48:21.187Z,18.50
2018-09-13T07:50:49.503Z,18.40
2018-09-13T07:53:17.591Z,18.40
2018-09-13T07:55:46.117Z,18.40
2018-09-13T07:58:14.219Z,18.60
2018-09-13T08:00:42.348Z,18.60
2018-09-13T08:03:10.928Z,18.50
2018-09-13T08:05:39.405Z,18.60
2018-09-13T08:08:07.681Z,18.60
2018-09-13T08:10:35.835Z,18.90
2018-09-13T08:13:04.123Z,19.10
2018-09-13T08:15:32.484Z,19.30
2018-09-13T08:18:00.628Z,19.40
2018-09-13T08:20:28.932Z,19.60
2018-09-13T08:22:57.071Z,19.70
2018-09-13T08:25:25.224Z,20.10
2018-09-13T08:27:53.790Z,20.30
2018-09-13T08:30:21.975Z,20.30
2018-09-13T08:32:50.212Z,20.40
2018-09-13T08:35:18.310Z,20.50
2018-09-13T08:37:46.584Z,20.60
2018-09-13T08:40:15.022Z,20.70
2018-09-13T08:42:43.725Z,21.00
2018-09-13T08:45:12.332Z,21.20
2018-09-13T08:47:40.682Z,21.10
2018-09-13T08:50:08.807Z,21.20
2018-09-13T08:52:36.929Z,21.30
2018-09-13T08:55:09.961Z,21.30
2018-09-13T08:57:38.268Z,21.30
2018-09-13T09:00:08.435Z,21.50
2018-09-13T09:02:36.727Z,21.80
2018-09-13T09:05:05.149Z,22.10
2018-09-13T09:07:33.754Z,22.30
2018-09-13T09:10:01.968Z,22.40
2018-09-13T09:12:30.344Z,22.50
2018-09-13T09:14:58.703Z,22.70
2018-09-13T09:17:26.965Z,23.10
2018-09-13T09:19:55.478Z,23.60
2018-09-13T09:22:23.965Z,24.10
2018-09-13T09:24:52.080Z,24.60
2018-09-13T09:27:20.201Z,25.00
2018-09-13T09:29:48.308Z,25.40
2018-09-13T09:32:16.698Z,25.80
2018-09-13T09:34:44.818Z,26.10
2018-09-13T09:37:12.916Z,26.30
2018-09-13T09:39:41.078Z,26.60
2018-09-13T09:42:09.191Z,26.90
2018-09-13T09:44:37.291Z,27.20
2018-09-13T09:47:05.547Z,27.40
2018-09-13T09:49:33.663Z,27.70
2018-09-13T09:52:01.813Z,27.90
2018-09-13T09:54:29.859Z,28.20
2018-09-13T09:56:57.990Z,28.40
2018-09-13T09:59:26.081Z,28.60
2018-09-13T10:01:59.552Z,28.40
2018-09-13T10:04:27.723Z,28.20
2018-09-13T10:06:56.255Z,28.10
2018-09-13T10:09:24.400Z,27.80
2018-09-13T10:11:52.527Z,27.80
2018-09-13T10:14:20.641Z,27.80
2018-09-13T10:16:54.106Z,28.10
2018-09-13T10:19:27.649Z,28.50
2018-09-13T10:22:01.288Z,28.70
2018-09-13T10:24:34.746Z,28.70
2018-09-13T10:27:08.140Z,28.60
2018-09-13T10:29:41.766Z,28.40
2018-09-13T10:32:15.053Z,28.10
2018-09-13T10:34:48.476Z,27.90
2018-09-13T10:37:22.035Z,27.70
2018-09-13T10:39:55.525Z,27.70
2018-09-13T10:42:28.939Z,27.70
2018-09-13T10:45:02.296Z,27.60
2018-09-13T10:47:35.795Z,27.60
2018-09-13T10:50:09.417Z,28.10
2018-09-13T10:52:39.819Z,28.70
2018-09-13T10:55:07.925Z,28.90
2018-09-13T10:57:41.116Z,29.40
2018-09-13T11:00:09.639Z,29.80
2018-09-13T11:02:37.751Z,30.20
2018-09-13T11:05:05.849Z,30.50
2018-09-13T11:07:33.928Z,30.80
2018-09-13T11:10:02.070Z,31.00
2018-09-13T11:12:38.191Z,31.30
2018-09-13T11:15:11.623Z,31.70
2018-09-13T11:17:39.744Z,31.90
2018-09-13T11:20:07.845Z,33.20
2018-09-13T11:22:35.942Z,35.60
2018-09-13T11:25:04.027Z,37.30
2018-09-13T11:27:32.132Z,38.40
2018-09-13T11:30:00.261Z,39.90
2018-09-13T11:32:28.376Z,41.40
2018-09-13T11:34:56.491Z,42.40
2018-09-13T11:37:24.619Z,43.50
2018-09-13T11:39:52.914Z,44.60
2018-09-13T11:42:20.920Z,45.70
2018-09-13T11:44:49.041Z,46.50
2018-09-13T11:47:17.218Z,47.30
2018-09-13T11:49:45.388Z,47.90
2018-09-13T11:52:14.093Z,48.70
2018-09-13T11:54:42.275Z,49.50
2018-09-13T11:57:10.472Z,49.90
2018-09-13T11:59:38.592Z,50.70
2018-09-13T12:02:06.855Z,51.00
2018-09-13T12:04:34.800Z,51.60
2018-09-13T12:07:02.940Z,49.50
2018-09-13T12:09:31.081Z,45.30
2018-09-13T12:11:59.168Z,42.30
2018-09-13T12:14:27.291Z,40.10
2018-09-13T12:16:55.439Z,38.70
2018-09-13T12:19:23.546Z,40.50
2018-09-13T12:21:51.663Z,44.40
2018-09-13T12:24:19.806Z,47.20
2018-09-13T12:26:47.943Z,49.60
2018-09-13T12:29:16.039Z,50.90
2018-09-13T12:31:44.121Z,51.70
2018-09-13T12:34:12.211Z,49.50
2018-09-13T12:36:40.346Z,46.30
2018-09-13T12:39:09.770Z,43.20
2018-09-13T12:41:37.868Z,40.80
2018-09-13T12:44:06.025Z,39.00
2018-09-13T12:46:34.110Z,37.70
2018-09-13T12:49:02.260Z,36.50
2018-09-13T12:51:30.559Z,35.70
2018-09-13T12:53:58.688Z,35.20
2018-09-13T12:56:26.802Z,36.40
2018-09-13T12:58:54.894Z,38.90
2018-09-13T13:01:22.995Z,43.40
2018-09-13T13:03:51.109Z,46.70
2018-09-13T13:06:19.226Z,49.70
2018-09-13T13:08:47.407Z,51.20
2018-09-13T13:11:15.459Z,52.20
2018-09-13T13:13:43.642Z,53.00
2018-09-13T13:16:12.075Z,53.60
2018-09-13T13:18:40.176Z,54.00
2018-09-13T13:21:08.318Z,54.40
2018-09-13T13:23:36.460Z,55.00
2018-09-13T13:26:04.558Z,55.40
2018-09-13T13:28:32.696Z,55.50
2018-09-13T13:31:00.807Z,55.30
2018-09-13T13:33:28.992Z,55.40
2018-09-13T13:35:57.110Z,52.30
2018-09-13T13:38:25.248Z,52.10
2018-09-13T13:40:53.382Z,51.10
2018-09-13T13:43:21.635Z,47.60
2018-09-13T13:45:49.875Z,47.70
2018-09-13T13:48:18.011Z,49.00
2018-09-13T13:50:52.713Z,48.40
2018-09-13T13:53:20.823Z,47.70
2018-09-13T13:55:48.932Z,46.70
2018-09-13T13:58:17.106Z,45.90
2018-09-13T14:00:45.283Z,45.00
2018-09-13T14:03:13.540Z,44.20
2018-09-13T14:05:41.685Z,43.50
2018-09-13T14:08:09.791Z,42.90
2018-09-13T14:10:37.953Z,42.90
2018-09-13T14:13:06.203Z,44.90
2018-09-13T14:15:34.357Z,46.70
2018-09-13T14:18:02.558Z,48.30
2018-09-13T14:20:30.818Z,49.40
2018-09-13T14:22:58.875Z,50.30
2018-09-13T14:25:27.019Z,50.90
2018-09-13T14:27:55.147Z,51.40
2018-09-13T14:30:23.246Z,51.80
2018-09-13T14:32:51.391Z,52.00
2018-09-13T14:35:19.517Z,52.10
2018-09-13T14:37:47.640Z,52.20
2018-09-13T14:40:15.803Z,52.10
2018-09-13T14:42:43.931Z,52.00
2018-09-13T14:45:12.095Z,51.90
2018-09-13T14:47:40.273Z,51.50
2018-09-13T14:50:08.296Z,51.40
2018-09-13T14:52:36.412Z,51.30
2018-09-13T14:55:04.495Z,50.90
2018-09-13T14:57:32.628Z,49.70
2018-09-13T15:00:00.813Z,46.40
2018-09-13T15:02:28.907Z,43.60
2018-09-13T15:04:57.034Z,41.50
2018-09-13T15:07:25.227Z,40.00
2018-09-13T15:09:53.293Z,38.80
2018-09-13T15:12:21.392Z,37.90
2018-09-13T15:14:49.472Z,37.10
2018-09-13T15:17:17.559Z,36.30
2018-09-13T15:19:45.656Z,36.30
2018-09-13T15:22:13.767Z,35.80
2018-09-13T15:24:42.020Z,35.30
2018-09-13T15:27:09.987Z,35.90
2018-09-13T15:29:38.122Z,36.70
2018-09-13T15:32:06.528Z,37.20
2018-09-13T15:34:34.696Z,37.30
2018-09-13T15:37:02.872Z,37.10
2018-09-13T15:39:30.967Z,36.80
2018-09-13T15:41:59.084Z,36.50
2018-09-13T15:44:27.193Z,36.20
2018-09-13T15:46:55.307Z,35.90
2018-09-13T15:49:23.441Z,35.60
2018-09-13T15:51:51.552Z,35.20
2018-09-13T15:54:19.648Z,34.80
2018-09-13T15:56:47.760Z,34.50
2018-09-13T15:59:15.879Z,34.20
2018-09-13T16:01:44.022Z,34.00
2018-09-13T16:04:12.144Z,33.70
2018-09-13T16:06:40.252Z,33.50
2018-09-13T16:09:08.998Z,33.40
2018-09-13T16:11:37.684Z,33.10
2018-09-13T16:14:05.867Z,32.80
2018-09-13T16:16:34.399Z,32.60
2018-09-13T16:19:02.528Z,32.40
2018-09-13T16:21:30.626Z,32.10
2018-09-13T16:23:58.834Z,32.00
2018-09-13T16:26:27.046Z,31.90
2018-09-13T16:28:55.177Z,31.70
2018-09-13T16:31:23.285Z,31.60
2018-09-13T16:33:51.545Z,31.40
2018-09-13T16:36:24.655Z,31.30
2018-09-13T16:38:58.311Z,31.10
2018-09-13T16:41:32.523Z,30.90
2018-09-13T16:44:02.396Z,30.80
2018-09-13T16:46:37.157Z,30.70
2018-09-13T16:49:05.636Z,30.50
2018-09-13T16:51:34.231Z,30.40
2018-09-13T16:54:02.365Z,30.30
2018-09-13T16:56:30.562Z,30.10
2018-09-13T16:58:58.687Z,30.10
2018-09-13T17:01:26.765Z,29.90
2018-09-13T17:03:54.935Z,29.90
2018-09-13T17:06:23.099Z,29.70
2018-09-13T17:08:51.236Z,29.60
2018-09-13T17:11:19.366Z,29.50
2018-09-13T17:13:47.528Z,29.40
2018-09-13T17:16:15.619Z,29.30
2018-09-13T17:18:43.727Z,29.20
2018-09-13T17:21:11.837Z,29.10
2018-09-13T17:23:39.939Z,29.00
2018-09-13T17:26:08.026Z,28.90
2018-09-13T17:28:36.201Z,28.80
2018-09-13T17:31:04.385Z,28.70
2018-09-13T17:33:32.514Z,28.60
2018-09-13T17:36:00.634Z,28.50
2018-09-13T17:38:28.732Z,28.40
2018-09-13T17:40:56.839Z,28.30
2018-09-13T17:43:24.996Z,28.20
2018-09-13T17:45:53.110Z,28.10
2018-09-13T17:48:21.301Z,28.10
2018-09-13T17:50:49.476Z,27.90
2018-09-13T17:53:17.577Z,27.90
2018-09-13T17:55:45.751Z,27.80
2018-09-13T17:58:13.833Z,27.70
2018-09-13T18:00:42.100Z,27.60
2018-09-13T18:03:10.385Z,27.50
2018-09-13T18:05:38.527Z,27.40
2018-09-13T18:08:06.647Z,27.30
2018-09-13T18:10:34.795Z,27.30
2018-09-13T18:13:02.918Z,27.20
2018-09-13T18:15:31.040Z,27.10
2018-09-13T18:17:59.163Z,27.00
2018-09-13T18:20:27.328Z,26.90
2018-09-13T18:22:55.438Z,26.90
2018-09-13T18:25:23.562Z,26.80
2018-09-13T18:27:51.684Z,26.70
2018-09-13T18:30:19.809Z,26.60
2018-09-13T18:32:47.878Z,26.60
2018-09-13T18:35:16.103Z,26.50
2018-09-13T18:37:44.191Z,26.40
2018-09-13T18:40:12.309Z,26.40
2018-09-13T18:42:40.465Z,26.30
2018-09-13T18:45:08.585Z,26.30
2018-09-13T18:47:36.672Z,26.20
2018-09-13T18:50:04.780Z,26.10
2018-09-13T18:52:32.884Z,26.10
2018-09-13T18:55:00.999Z,26.00
2018-09-13T18:57:29.121Z,25.90
2018-09-13T18:59:57.311Z,25.90
2018-09-13T19:02:25.482Z,25.80
2018-09-13T19:04:53.564Z,25.80
2018-09-13T19:07:21.695Z,25.70
2018-09-13T19:09:49.822Z,25.60
2018-09-13T19:12:18.141Z,25.50
2018-09-13T19:14:46.334Z,25.50
2018-09-13T19:17:14.523Z,25.50
2018-09-13T19:19:42.598Z,25.40
2018-09-13T19:22:10.805Z,25.30
2018-09-13T19:24:38.939Z,25.30
2018-09-13T19:27:07.099Z,25.20
2018-09-13T19:29:35.276Z,25.20
2018-09-13T19:32:03.417Z,25.20
2018-09-13T19:34:31.785Z,25.10
2018-09-13T19:36:59.888Z,25.00
2018-09-13T19:39:28.017Z,25.00
2018-09-13T19:41:56.120Z,25.00
2018-09-13T19:44:24.387Z,24.90
2018-09-13T19:46:52.502Z,24.80
2018-09-13T19:49:20.640Z,24.80
2018-09-13T19:51:48.799Z,24.70
2018-09-13T19:54:16.920Z,24.70
2018-09-13T19:56:45.164Z,24.60
2018-09-13T19:59:13.777Z,24.60
2018-09-13T20:01:41.964Z,24.60
2018-09-13T20:04:10.086Z,24.50
2018-09-13T20:06:38.286Z,24.50
2018-09-13T20:09:08.419Z,24.40
2018-09-13T20:11:36.748Z,24.30
2018-09-13T20:14:05.051Z,24.30
2018-09-13T20:16:33.176Z,24.30
2018-09-13T20:19:01.477Z,24.20
2018-09-13T20:21:29.682Z,24.20
2018-09-13T20:23:57.843Z,24.20
2018-09-13T20:26:25.964Z,24.10
2018-09-13T20:28:54.242Z,24.00
2018-09-13T20:31:22.167Z,24.00
2018-09-13T20:33:56.751Z,23.90
2018-09-13T20:36:24.836Z,23.90
2018-09-13T20:38:52.988Z,23.80
2018-09-13T20:41:21.117Z,23.80
2018-09-13T20:43:49.235Z,23.70
2018-09-13T20:46:17.791Z,23.70
2018-09-13T20:48:45.941Z,23.60
2018-09-13T20:51:14.086Z,23.60
2018-09-13T20:53:42.106Z,23.60
2018-09-13T20:56:10.208Z,23.60
2018-09-13T20:58:38.331Z,23.50
2018-09-13T21:01:06.432Z,23.50
2018-09-13T21:03:34.552Z,23.40
2018-09-13T21:06:02.678Z,23.40
2018-09-13T21:08:30.844Z,23.30
2018-09-13T21:10:58.885Z,23.30
2018-09-13T21:13:27.016Z,23.20
2018-09-13T21:15:55.148Z,23.20
2018-09-13T21:18:23.261Z,23.10
2018-09-13T21:20:51.425Z,23.10
2018-09-13T21:23:20.576Z,23.00
2018-09-13T21:25:48.841Z,23.00
2018-09-13T21:28:16.996Z,23.00
2018-09-13T21:30:45.106Z,22.90
2018-09-13T21:33:14.016Z,22.90
2018-09-13T21:35:42.122Z,22.90
2018-09-13T21:38:10.240Z,22.90
2018-09-13T21:40:39.545Z,22.90
2018-09-13T21:43:07.644Z,22.80
2018-09-13T21:45:35.777Z,22.70
2018-09-13T21:48:03.891Z,22.70
2018-09-13T21:50:32.049Z,22.70
2018-09-13T21:53:00.239Z,22.70
2018-09-13T21:55:28.340Z,22.60
2018-09-13T21:57:56.458Z,22.60
2018-09-13T22:00:24.576Z,22.60
2018-09-13T22:02:52.719Z,22.50
2018-09-13T22:05:21.007Z,22.50
2018-09-13T22:07:49.230Z,22.50
2018-09-13T22:10:17.359Z,22.50
2018-09-13T22:12:45.519Z,22.40
2018-09-13T22:15:13.666Z,22.40
2018-09-13T22:17:41.880Z,22.40
2018-09-13T22:20:10.027Z,22.30
2018-09-13T22:22:38.170Z,22.30
2018-09-13T22:25:06.299Z,22.30
2018-09-13T22:27:34.500Z,22.20
2018-09-13T22:30:02.624Z,22.20
2018-09-13T22:32:30.817Z,22.20
2018-09-13T22:34:58.947Z,22.10
2018-09-13T22:37:27.119Z,22.10
2018-09-13T22:39:55.267Z,22.10
2018-09-13T22:42:23.439Z,22.00
2018-09-13T22:44:55.763Z,22.00
2018-09-13T22:47:23.989Z,22.00
2018-09-13T22:49:52.087Z,21.90
2018-09-13T22:52:20.211Z,21.90
2018-09-13T22:54:50.512Z,21.90
2018-09-13T22:57:19.171Z,21.80
2018-09-13T22:59:47.306Z,21.90
2018-09-13T23:02:15.431Z,21.70
2018-09-13T23:04:43.609Z,21.70
2018-09-13T23:07:11.703Z,21.70
2018-09-13T23:09:39.917Z,21.70
2018-09-13T23:12:08.170Z,21.70
2018-09-13T23:14:36.427Z,21.60
2018-09-13T23:17:04.674Z,21.60
2018-09-13T23:19:32.858Z,21.60
2018-09-13T23:22:01.151Z,21.60
2018-09-13T23:24:29.345Z,21.50
2018-09-13T23:26:57.436Z,21.50
2018-09-13T23:29:25.592Z,21.40
2018-09-13T23:31:53.840Z,21.40
2018-09-13T23:34:21.961Z,21.50
2018-09-13T23:36:50.078Z,21.40
2018-09-13T23:39:18.343Z,21.40
2018-09-13T23:41:46.559Z,21.40
2018-09-13T23:44:14.654Z,21.30
2018-09-13T23:46:43.792Z,21.30
2018-09-13T23:49:11.901Z,21.30
2018-09-13T23:51:40.047Z,21.20
2018-09-13T23:54:08.147Z,21.20
2018-09-13T23:56:36.296Z,21.20
2018-09-13T23:59:04.476Z,21.20
